sensor_id;sensor_type;location;lat;lon;timestamp;temperature;humidity
32147;DHT22;32190;49.112;8.598;2022-08-01T00:02:02;30.00;32.70
32147;DHT22;32190;49.112;8.598;2022-08-01T00:07:52;30.00;32.90
32147;DHT22;32190;49.112;8.598;2022-08-01T00:13:43;29.90;32.90
32147;DHT22;32190;49.112;8.598;2022-08-01T00:19:34;29.80;33.00
32147;DHT22;32190;49.112;8.598;2022-08-01T00:25:24;29.80;33.10
32147;DHT22;32190;49.112;8.598;2022-08-01T00:31:15;29.70;33.30
32147;DHT22;32190;49.112;8.598;2022-08-01T00:37:06;29.70;33.40
32147;DHT22;32190;49.112;8.598;2022-08-01T00:42:56;29.60;33.60
32147;DHT22;32190;49.112;8.598;2022-08-01T00:48:47;29.50;33.60
32147;DHT22;32190;49.112;8.598;2022-08-01T00:54:37;29.50;33.70
32147;DHT22;32190;49.112;8.598;2022-08-01T01:00:29;29.50;33.70
32147;DHT22;32190;49.112;8.598;2022-08-01T01:18:49;29.30;34.40
32147;DHT22;32190;49.112;8.598;2022-08-01T01:25:07;29.30;34.40
32147;DHT22;32190;49.112;8.598;2022-08-01T01:31:00;29.20;34.50
32147;DHT22;32190;49.112;8.598;2022-08-01T01:36:54;29.20;34.50
32147;DHT22;32190;49.112;8.598;2022-08-01T01:42:47;29.10;35.30
32147;DHT22;32190;49.112;8.598;2022-08-01T01:48:40;29.00;34.90
32147;DHT22;32190;49.112;8.598;2022-08-01T01:54:33;29.00;35.40
32147;DHT22;32190;49.112;8.598;2022-08-01T02:00:25;28.80;35.40
32147;DHT22;32190;49.112;8.598;2022-08-01T02:06:17;28.80;35.60
32147;DHT22;32190;49.112;8.598;2022-08-01T02:12:10;28.70;35.60
32147;DHT22;32190;49.112;8.598;2022-08-01T02:18:02;28.60;35.90
32147;DHT22;32190;49.112;8.598;2022-08-01T02:23:54;28.60;36.00
32147;DHT22;32190;49.112;8.598;2022-08-01T02:29:58;28.50;36.00
32147;DHT22;32190;49.112;8.598;2022-08-01T02:35:51;28.40;36.70
32147;DHT22;32190;49.112;8.598;2022-08-01T02:41:47;28.40;36.50
32147;DHT22;32190;49.112;8.598;2022-08-01T02:47:38;28.30;36.80
32147;DHT22;32190;49.112;8.598;2022-08-01T02:53:32;28.30;36.80
32147;DHT22;32190;49.112;8.598;2022-08-01T02:59:27;28.30;36.80
32147;DHT22;32190;49.112;8.598;2022-08-01T03:05:20;28.20;37.10
32147;DHT22;32190;49.112;8.598;2022-08-01T03:11:12;28.20;37.70
32147;DHT22;32190;49.112;8.598;2022-08-01T03:17:05;28.20;37.20
32147;DHT22;32190;49.112;8.598;2022-08-01T03:22:57;28.10;37.20
32147;DHT22;32190;49.112;8.598;2022-08-01T03:28:51;28.10;37.30
32147;DHT22;32190;49.112;8.598;2022-08-01T03:34:42;28.00;37.40
32147;DHT22;32190;49.112;8.598;2022-08-01T03:40:59;28.00;37.40
32147;DHT22;32190;49.112;8.598;2022-08-01T03:46:58;27.90;37.90
32147;DHT22;32190;49.112;8.598;2022-08-01T03:52:50;27.90;37.80
32147;DHT22;32190;49.112;8.598;2022-08-01T03:58:41;27.90;37.70
32147;DHT22;32190;49.112;8.598;2022-08-01T04:04:33;27.80;38.00
32147;DHT22;32190;49.112;8.598;2022-08-01T04:10:24;27.80;37.90
32147;DHT22;32190;49.112;8.598;2022-08-01T04:16:15;27.70;37.80
32147;DHT22;32190;49.112;8.598;2022-08-01T04:22:05;27.70;38.20
32147;DHT22;32190;49.112;8.598;2022-08-01T04:27:57;27.70;38.30
32147;DHT22;32190;49.112;8.598;2022-08-01T04:33:51;27.70;38.40
32147;DHT22;32190;49.112;8.598;2022-08-01T04:39:45;27.60;38.70
32147;DHT22;32190;49.112;8.598;2022-08-01T04:45:37;27.60;38.70
32147;DHT22;32190;49.112;8.598;2022-08-01T04:51:29;27.50;38.70
32147;DHT22;32190;49.112;8.598;2022-08-01T04:57:19;27.50;38.70
32147;DHT22;32190;49.112;8.598;2022-08-01T05:03:10;27.50;38.80
32147;DHT22;32190;49.112;8.598;2022-08-01T05:09:00;27.50;38.60
32147;DHT22;32190;49.112;8.598;2022-08-01T05:14:51;27.50;39.10
32147;DHT22;32190;49.112;8.598;2022-08-01T05:20:41;27.40;39.10
32147;DHT22;32190;49.112;8.598;2022-08-01T05:26:32;27.40;39.20
32147;DHT22;32190;49.112;8.598;2022-08-01T05:32:23;27.40;39.50
32147;DHT22;32190;49.112;8.598;2022-08-01T05:38:14;27.30;39.80
32147;DHT22;32190;49.112;8.598;2022-08-01T05:44:05;27.50;39.60
32147;DHT22;32190;49.112;8.598;2022-08-01T05:49:55;28.60;40.60
32147;DHT22;32190;49.112;8.598;2022-08-01T05:55:46;30.10;39.70
32147;DHT22;32190;49.112;8.598;2022-08-01T06:01:36;31.80;39.10
32147;DHT22;32190;49.112;8.598;2022-08-01T06:07:27;33.40;37.50
32147;DHT22;32190;49.112;8.598;2022-08-01T06:13:18;34.50;36.50
32147;DHT22;32190;49.112;8.598;2022-08-01T06:19:09;34.50;35.40
32147;DHT22;32190;49.112;8.598;2022-08-01T06:25:00;34.00;35.10
32147;DHT22;32190;49.112;8.598;2022-08-01T06:30:50;33.20;35.10
32147;DHT22;32190;49.112;8.598;2022-08-01T06:36:41;32.50;35.60
32147;DHT22;32190;49.112;8.598;2022-08-01T06:42:32;32.10;36.00
32147;DHT22;32190;49.112;8.598;2022-08-01T06:48:25;32.40;36.70
32147;DHT22;32190;49.112;8.598;2022-08-01T06:54:16;33.10;36.60
32147;DHT22;32190;49.112;8.598;2022-08-01T07:00:07;33.80;36.30
32147;DHT22;32190;49.112;8.598;2022-08-01T07:06:00;34.20;35.60
32147;DHT22;32190;49.112;8.598;2022-08-01T07:11:51;34.10;35.30
32147;DHT22;32190;49.112;8.598;2022-08-01T07:17:43;34.00;35.40
32147;DHT22;32190;49.112;8.598;2022-08-01T07:23:34;33.70;35.40
32147;DHT22;32190;49.112;8.598;2022-08-01T07:29:25;33.30;35.40
32147;DHT22;32190;49.112;8.598;2022-08-01T07:35:15;33.00;35.70
32147;DHT22;32190;49.112;8.598;2022-08-01T07:41:06;32.80;35.80
32147;DHT22;32190;49.112;8.598;2022-08-01T07:46:56;32.60;35.80
32147;DHT22;32190;49.112;8.598;2022-08-01T07:52:47;32.40;35.80
32147;DHT22;32190;49.112;8.598;2022-08-01T07:58:37;32.20;35.80
32147;DHT22;32190;49.112;8.598;2022-08-01T08:04:28;32.00;36.00
32147;DHT22;32190;49.112;8.598;2022-08-01T08:10:18;31.90;35.90
32147;DHT22;32190;49.112;8.598;2022-08-01T08:16:09;31.80;36.10
32147;DHT22;32190;49.112;8.598;2022-08-01T08:22:00;31.80;35.90
32147;DHT22;32190;49.112;8.598;2022-08-01T08:27:51;31.70;36.00
32147;DHT22;32190;49.112;8.598;2022-08-01T08:33:42;31.70;36.20
32147;DHT22;32190;49.112;8.598;2022-08-01T08:39:32;31.50;36.30
32147;DHT22;32190;49.112;8.598;2022-08-01T08:45:23;31.40;36.40
32147;DHT22;32190;49.112;8.598;2022-08-01T08:51:16;31.30;36.50
32147;DHT22;32190;49.112;8.598;2022-08-01T08:57:08;31.20;37.10
32147;DHT22;32190;49.112;8.598;2022-08-01T09:03:00;31.20;37.10
32147;DHT22;32190;49.112;8.598;2022-08-01T09:08:51;31.10;37.10
32147;DHT22;32190;49.112;8.598;2022-08-01T09:14:45;31.10;37.20
32147;DHT22;32190;49.112;8.598;2022-08-01T09:20:36;31.00;37.20
32147;DHT22;32190;49.112;8.598;2022-08-01T09:26:35;31.00;37.50
32147;DHT22;32190;49.112;8.598;2022-08-01T09:32:26;31.00;37.80
32147;DHT22;32190;49.112;8.598;2022-08-01T09:38:17;31.00;37.70
32147;DHT22;32190;49.112;8.598;2022-08-01T09:44:08;31.00;37.60
32147;DHT22;32190;49.112;8.598;2022-08-01T09:49:59;31.10;37.80
32147;DHT22;32190;49.112;8.598;2022-08-01T09:55:50;31.10;37.90
32147;DHT22;32190;49.112;8.598;2022-08-01T10:01:49;31.10;38.00
32147;DHT22;32190;49.112;8.598;2022-08-01T10:07:57;31.00;38.50
32147;DHT22;32190;49.112;8.598;2022-08-01T10:13:48;31.00;38.10
32147;DHT22;32190;49.112;8.598;2022-08-01T10:19:40;31.10;38.00
32147;DHT22;32190;49.112;8.598;2022-08-01T10:25:35;31.20;38.00
32147;DHT22;32190;49.112;8.598;2022-08-01T10:31:27;31.20;37.90
32147;DHT22;32190;49.112;8.598;2022-08-01T10:37:21;31.30;37.80
32147;DHT22;32190;49.112;8.598;2022-08-01T10:43:16;31.30;37.90
32147;DHT22;32190;49.112;8.598;2022-08-01T10:49:15;31.40;37.80
32147;DHT22;32190;49.112;8.598;2022-08-01T10:55:08;31.40;37.70
32147;DHT22;32190;49.112;8.598;2022-08-01T11:07:18;31.50;37.40
32147;DHT22;32190;49.112;8.598;2022-08-01T11:13:11;31.50;37.50
32147;DHT22;32190;49.112;8.598;2022-08-01T11:19:03;31.50;37.70
32147;DHT22;32190;49.112;8.598;2022-08-01T11:24:54;31.50;37.70
32147;DHT22;32190;49.112;8.598;2022-08-01T11:30:51;31.50;37.70
32147;DHT22;32190;49.112;8.598;2022-08-01T11:36:42;31.50;37.80
32147;DHT22;32190;49.112;8.598;2022-08-01T11:42:33;31.50;37.70
32147;DHT22;32190;49.112;8.598;2022-08-01T11:48:25;31.50;37.80
32147;DHT22;32190;49.112;8.598;2022-08-01T11:54:16;31.50;38.00
32147;DHT22;32190;49.112;8.598;2022-08-01T12:00:15;31.60;37.90
32147;DHT22;32190;49.112;8.598;2022-08-01T12:06:06;31.70;38.00
32147;DHT22;32190;49.112;8.598;2022-08-01T12:11:57;31.80;37.80
32147;DHT22;32190;49.112;8.598;2022-08-01T12:17:56;31.80;37.70
32147;DHT22;32190;49.112;8.598;2022-08-01T12:24:00;31.90;37.70
32147;DHT22;32190;49.112;8.598;2022-08-01T12:29:50;32.00;37.60
32147;DHT22;32190;49.112;8.598;2022-08-01T12:35:41;32.20;37.20
32147;DHT22;32190;49.112;8.598;2022-08-01T12:41:32;32.30;37.10
32147;DHT22;32190;49.112;8.598;2022-08-01T12:47:23;32.40;36.70
32147;DHT22;32190;49.112;8.598;2022-08-01T12:53:15;32.40;36.80
32147;DHT22;32190;49.112;8.598;2022-08-01T12:59:26;32.50;36.50
32147;DHT22;32190;49.112;8.598;2022-08-01T13:05:17;32.40;36.60
32147;DHT22;32190;49.112;8.598;2022-08-01T13:11:10;32.40;36.30
32147;DHT22;32190;49.112;8.598;2022-08-01T13:17:04;32.50;36.40
32147;DHT22;32190;49.112;8.598;2022-08-01T13:22:55;32.60;36.30
32147;DHT22;32190;49.112;8.598;2022-08-01T13:28:46;32.70;36.00
32147;DHT22;32190;49.112;8.598;2022-08-01T13:34:36;32.80;35.70
32147;DHT22;32190;49.112;8.598;2022-08-01T13:40:27;32.90;35.90
32147;DHT22;32190;49.112;8.598;2022-08-01T13:46:18;33.00;35.80
32147;DHT22;32190;49.112;8.598;2022-08-01T13:52:09;33.10;35.30
32147;DHT22;32190;49.112;8.598;2022-08-01T13:58:00;33.20;35.00
32147;DHT22;32190;49.112;8.598;2022-08-01T14:03:51;33.30;35.10
32147;DHT22;32190;49.112;8.598;2022-08-01T14:09:42;33.40;35.00
32147;DHT22;32190;49.112;8.598;2022-08-01T14:15:41;33.40;34.60
32147;DHT22;32190;49.112;8.598;2022-08-01T14:21:32;33.50;34.70
32147;DHT22;32190;49.112;8.598;2022-08-01T14:27:25;33.60;34.60
32147;DHT22;32190;49.112;8.598;2022-08-01T14:33:21;33.60;34.30
32147;DHT22;32190;49.112;8.598;2022-08-01T14:39:11;33.60;34.50
32147;DHT22;32190;49.112;8.598;2022-08-01T14:45:03;33.60;34.20
32147;DHT22;32190;49.112;8.598;2022-08-01T14:50:58;33.60;34.20
32147;DHT22;32190;49.112;8.598;2022-08-01T14:56:52;33.60;34.30
32147;DHT22;32190;49.112;8.598;2022-08-01T15:02:43;33.70;34.40
32147;DHT22;32190;49.112;8.598;2022-08-01T15:08:34;33.70;34.30
32147;DHT22;32190;49.112;8.598;2022-08-01T15:14:25;33.80;34.40
32147;DHT22;32190;49.112;8.598;2022-08-01T15:20:34;33.80;33.90
32147;DHT22;32190;49.112;8.598;2022-08-01T15:26:24;33.70;33.90
32147;DHT22;32190;49.112;8.598;2022-08-01T15:32:15;33.60;34.00
32147;DHT22;32190;49.112;8.598;2022-08-01T15:38:06;33.40;34.10
32147;DHT22;32190;49.112;8.598;2022-08-01T15:43:56;33.20;34.20
32147;DHT22;32190;49.112;8.598;2022-08-01T15:49:47;33.10;34.30
32147;DHT22;32190;49.112;8.598;2022-08-01T15:55:38;33.10;34.30
32147;DHT22;32190;49.112;8.598;2022-08-01T16:01:29;33.00;34.50
32147;DHT22;32190;49.112;8.598;2022-08-01T16:07:22;32.90;34.70
32147;DHT22;32190;49.112;8.598;2022-08-01T16:13:13;32.80;34.80
32147;DHT22;32190;49.112;8.598;2022-08-01T16:19:03;32.70;34.90
32147;DHT22;32190;49.112;8.598;2022-08-01T16:24:54;32.70;35.00
32147;DHT22;32190;49.112;8.598;2022-08-01T16:30:48;32.70;35.10
32147;DHT22;32190;49.112;8.598;2022-08-01T16:36:39;32.70;34.90
32147;DHT22;32190;49.112;8.598;2022-08-01T16:42:29;32.70;35.00
32147;DHT22;32190;49.112;8.598;2022-08-01T16:48:20;32.70;35.20
32147;DHT22;32190;49.112;8.598;2022-08-01T16:54:10;32.60;34.90
32147;DHT22;32190;49.112;8.598;2022-08-01T17:00:10;32.60;34.90
32147;DHT22;32190;49.112;8.598;2022-08-01T17:06:01;32.50;35.20
32147;DHT22;32190;49.112;8.598;2022-08-01T17:11:51;32.40;35.00
32147;DHT22;32190;49.112;8.598;2022-08-01T17:17:42;32.50;35.00
32147;DHT22;32190;49.112;8.598;2022-08-01T17:23:32;32.50;35.00
32147;DHT22;32190;49.112;8.598;2022-08-01T17:29:24;32.40;35.00
32147;DHT22;32190;49.112;8.598;2022-08-01T17:35:16;32.30;34.90
32147;DHT22;32190;49.112;8.598;2022-08-01T17:41:07;32.20;35.00
32147;DHT22;32190;49.112;8.598;2022-08-01T17:46:57;32.20;35.10
32147;DHT22;32190;49.112;8.598;2022-08-01T17:52:48;32.10;35.00
32147;DHT22;32190;49.112;8.598;2022-08-01T17:58:39;32.00;35.00
32147;DHT22;32190;49.112;8.598;2022-08-01T18:04:29;32.00;34.90
32147;DHT22;32190;49.112;8.598;2022-08-01T18:10:20;32.00;34.90
32147;DHT22;32190;49.112;8.598;2022-08-01T18:16:11;32.00;35.00
32147;DHT22;32190;49.112;8.598;2022-08-01T18:22:02;32.00;35.30
32147;DHT22;32190;49.112;8.598;2022-08-01T18:27:52;32.00;35.20
32147;DHT22;32190;49.112;8.598;2022-08-01T18:33:43;32.00;35.50
32147;DHT22;32190;49.112;8.598;2022-08-01T18:39:34;31.80;35.10
32147;DHT22;32190;49.112;8.598;2022-08-01T18:45:24;31.80;35.20
32147;DHT22;32190;49.112;8.598;2022-08-01T18:51:15;31.60;35.40
32147;DHT22;32190;49.112;8.598;2022-08-01T18:57:05;31.70;35.50
32147;DHT22;32190;49.112;8.598;2022-08-01T19:02:56;31.70;35.60
32147;DHT22;32190;49.112;8.598;2022-08-01T19:08:51;31.70;35.60
32147;DHT22;32190;49.112;8.598;2022-08-01T19:14:42;31.70;35.70
32147;DHT22;32190;49.112;8.598;2022-08-01T19:20:32;31.80;35.60
32147;DHT22;32190;49.112;8.598;2022-08-01T19:26:26;31.80;35.70
32147;DHT22;32190;49.112;8.598;2022-08-01T19:32:18;31.70;35.70
32147;DHT22;32190;49.112;8.598;2022-08-01T19:38:09;31.70;35.70
32147;DHT22;32190;49.112;8.598;2022-08-01T19:44:00;31.70;35.70
32147;DHT22;32190;49.112;8.598;2022-08-01T19:49:52;31.60;35.80
32147;DHT22;32190;49.112;8.598;2022-08-01T19:55:44;31.50;35.70
32147;DHT22;32190;49.112;8.598;2022-08-01T20:01:36;31.50;35.80
32147;DHT22;32190;49.112;8.598;2022-08-01T20:07:27;31.40;35.70
32147;DHT22;32190;49.112;8.598;2022-08-01T20:13:18;31.40;35.80
32147;DHT22;32190;49.112;8.598;2022-08-01T20:19:09;31.30;35.80
32147;DHT22;32190;49.112;8.598;2022-08-01T20:25:00;31.30;35.90
32147;DHT22;32190;49.112;8.598;2022-08-01T20:30:58;31.20;35.90
32147;DHT22;32190;49.112;8.598;2022-08-01T20:36:50;31.10;36.10
32147;DHT22;32190;49.112;8.598;2022-08-01T20:42:42;31.10;36.10
32147;DHT22;32190;49.112;8.598;2022-08-01T20:48:33;31.10;36.20
32147;DHT22;32190;49.112;8.598;2022-08-01T20:54:24;31.00;36.20
32147;DHT22;32190;49.112;8.598;2022-08-01T21:00:16;31.00;36.40
32147;DHT22;32190;49.112;8.598;2022-08-01T21:06:14;30.90;36.40
32147;DHT22;32190;49.112;8.598;2022-08-01T21:12:15;30.80;36.60
32147;DHT22;32190;49.112;8.598;2022-08-01T21:18:11;30.80;36.70
32147;DHT22;32190;49.112;8.598;2022-08-01T21:24:09;30.70;36.70
32147;DHT22;32190;49.112;8.598;2022-08-01T21:30:05;30.60;36.90
32147;DHT22;32190;49.112;8.598;2022-08-01T21:35:57;30.60;37.00
32147;DHT22;32190;49.112;8.598;2022-08-01T21:41:48;30.50;37.00
32147;DHT22;32190;49.112;8.598;2022-08-01T21:47:39;30.40;37.00
32147;DHT22;32190;49.112;8.598;2022-08-01T21:53:57;30.40;37.10
32147;DHT22;32190;49.112;8.598;2022-08-01T22:06:04;30.20;37.70
32147;DHT22;32190;49.112;8.598;2022-08-01T22:11:56;30.10;37.50
32147;DHT22;32190;49.112;8.598;2022-08-01T22:17:50;30.10;37.60
32147;DHT22;32190;49.112;8.598;2022-08-01T22:23:41;30.00;37.80
32147;DHT22;32190;49.112;8.598;2022-08-01T22:29:33;30.00;37.70
32147;DHT22;32190;49.112;8.598;2022-08-01T22:35:24;29.90;37.80
32147;DHT22;32190;49.112;8.598;2022-08-01T22:41:17;29.90;38.10
32147;DHT22;32190;49.112;8.598;2022-08-01T22:47:15;29.80;38.20
32147;DHT22;32190;49.112;8.598;2022-08-01T22:53:31;29.80;38.10
32147;DHT22;32190;49.112;8.598;2022-08-01T22:59:31;29.70;38.20
32147;DHT22;32190;49.112;8.598;2022-08-01T23:05:24;29.70;38.50
32147;DHT22;32190;49.112;8.598;2022-08-01T23:11:15;29.60;38.50
32147;DHT22;32190;49.112;8.598;2022-08-01T23:17:09;29.50;38.40
32147;DHT22;32190;49.112;8.598;2022-08-01T23:23:02;29.30;38.90
32147;DHT22;32190;49.112;8.598;2022-08-01T23:28:53;29.20;38.80
32147;DHT22;32190;49.112;8.598;2022-08-01T23:34:45;29.10;38.80
32147;DHT22;32190;49.112;8.598;2022-08-01T23:40:37;29.00;39.00
32147;DHT22;32190;49.112;8.598;2022-08-01T23:46:27;29.00;38.90
32147;DHT22;32190;49.112;8.598;2022-08-01T23:52:18;29.00;39.30
32147;DHT22;32190;49.112;8.598;2022-08-01T23:58:08;29.00;39.20
